EGDW weather

Public forecast

Using degrees Celsius for public forecast. Weather courtesy of forecast.io.

Closest aviation weather report (METAR) to Merryfield RNAS Air Base

Closest report is RNAS Yeovilton, 11.6 nm (21.4 km) ENE. Retrieved 2020/08/12 22:50 UTC (53 minutes ago):

EGDY 122250Z AUTO 35004KT 9999 BKN080/// 21/17 Q1012

Closest aviation forecast (TAF) to Merryfield RNAS Air Base

Forecast is more than 12 hours old.

Closest forecast is RNAS Yeovilton, 11.6 nm (21.4 km) ENE. Retrieved 2020/07/01 18:15 UTC (1 month ago):

TAF TAF EGDY 010110Z 3018/0103 CNL